CheckWX is a tool to help pilots better visualize weather data.  It is not intended as a substitute for an official pre-flight weather briefing.

18:24:34 UTC

KMLU TAF
Monroe Regional Airport
Monroe, Louisiana, USA
KMLU 201753Z 2018/2118 16008KT P6SM VCSH SCT025 BKN070 TEMPO 2019/2023 6SM -SHRA BKN030 FM202300 13006KT P6SM SCT030 BKN060 FM210600 13004KT P6SM FEW015 FM211600 15007KT P6SM SCT020 SCT040

Sep-20@
18:00 UTC

Sep-20 @ 18:00 UTC

Sep-20@
23:00 UTC

Sep-20 @ 23:00 UTC

KMLU 201753Z 2018/2118 16008KT P6SM VCSH SCT025 BKN070
Wind
  • 160° at 8 KTS
Cloud Levels
  • Scattered at 2,500' AGL
  • Broken at 7,000' AGL

Sep-20@
19:00 UTC

Sep-20 @ 19:00 UTC

Sep-20@
23:00 UTC

Sep-20 @ 23:00 UTC

TEMPO 2019/2023 6SM -SHRA BKN030

Temporary

Temporary Changes expected for less than half the time period

Conditions
Light Rain
Cloud Levels
  • Broken at 3,000' AGL

Sep-20@
23:00 UTC

Sep-20 @ 23:00 UTC

Sep-21@
06:00 UTC

Sep-21 @ 06:00 UTC

FM202300 13006KT P6SM SCT030 BKN060

From

From Standard forecast or significant change

Wind
  • 130° at 6 KTS
Cloud Levels
  • Scattered at 3,000' AGL
  • Broken at 6,000' AGL

Sep-21@
06:00 UTC

Sep-21 @ 06:00 UTC

Sep-21@
16:00 UTC

Sep-21 @ 16:00 UTC

FM210600 13004KT P6SM FEW015

From

From Standard forecast or significant change

Wind
  • 130° at 4 KTS
Cloud Levels
  • Few at 1,500' AGL

Sep-21@
16:00 UTC

Sep-21 @ 16:00 UTC

Sep-21@
18:00 UTC

Sep-21 @ 18:00 UTC

FM211600 15007KT P6SM SCT020 SCT040

From

From Standard forecast or significant change

Wind
  • 150° at 7 KTS
Cloud Levels
  • Scattered at 2,000' AGL
  • Scattered at 4,000' AGL